Timeline UpdatesTrip UpdatesNews PostsPvt Posts♥♥Travel TipsAdmin PostsConv PostsFollowed PostsChat RequestsBlog PostsPNR Posts

Disclaimer
Search
 
 
Mon Nov 24, 2014 12:20:35 ISTHomeTrainsΣChainsAtlasPNRForumGalleryNewsFAQTripsMembersLoginFeedback
No Recent News for this Train
Other Trains in the News **new
Latest...
..
Thu Jul 31, 2014 (05:11PM)
⇐ Return Journey: Train# 12878

12877/Ranchi - New Delhi Garib Rath Express

Time-Table HAS CHANGED.
Oct 06 2014 (11:46PM)
Change Departure Station:
Change Arrival Station:
Post a Train Travel TipPost a Train Travel Tip **new
Post a Comment/Question/Picture/VideoPost a Comment/Question/Picture/Video
Inaugural Run
Wed Jan 28, 2009
Pantry/Catering
✕ NO Pantry Car
✓ Catering Avbl
RSA - Rake Sharing
No RSA, 2 separate rakes
Rake/Coach Composition
LOCO-GD1-G1-G2-G3-G4-G5-G6-G7-G8-G9-G10-G11-G12-G13-G14-G15-G16-G17-G18-GD2
Loco
GZB WAP-4
News    PNR    Forum    Time-Table    Availability    Fare Chart    Map    Arr/Dep History    Trips    Gallery    ΣChains    X/O    Timeline    
Travel Time: 18h 10m    12 halts    Distance: 1341 km    Avg Speed: 73 km/hr
Type: Garib Rath
Zone: SER/South Eastern
Departs @ 16:40 (Avg on time)
Platform# 1
 MT  F 
Ranchi Junction/RNC 
Arrives @ 10:50 +1 night (Avg 2h 27m late)
Platform# 16
  TW  S
New Delhi/NDLS 

12 halts. 197 intermediate Stations between Ranchi Junction and New Delhi

Hide intermediate Stations  Show Old Time-Table

#TrkCodeStation NameX/OArrivesAvgDepartsAvgHaltPFDay#KmSpeedElevZoneAddress
1/==/RNCRanchi Junction (6)»  -16:40+0110.058632mSERDiv HQ SER, Jharkhand
1.1/==/NKMNamkom (3)X  16:44-16:44-  14.2 58618mSERRanchi, Jharkhand
1.2/=-/TISTatisilwai (3)  16:51-16:51-  110.7 58612mSERTatisilwai, Jharkhand
1.3/--/GAGGangaghat (2)  16:59-16:59-  118.5 58543mSERState Highway 2, Jharkhand
1.4/--/KWKCKherwa Kocha (1)  17:09-17:09-  127.6 58454mSERlepsar, Jharkhand
1.5/--/JONJonha (1)  17:10-17:10-  129.0 58470mSERJohna, Jharkhand
1.6/-=/KITAKita (2)  17:28-17:28-  145.9 58323mSERState Highway 2, Jharkhand
1.7/==/SLFSilli (3)  17:36-17:36-  153.6 58269mSERRanchi, Jharkhand
1.8/--/MURIMuri Junction (3)  17:42-17:42-  159.7 58254mSER06522-222444, Jharkhand
1.9/--/BLNGBarlanga (2)X  17:52-17:52-  169.4 58272mSERGola Rd, West Bengal
1.10/--/SNDSondimra  17:58-17:58-  174.8 58290mSERGola Rd, West Bengal
1.11/--/HRBRHarubera  18:05-18:05-  181.6 58320mSERRamgarh bypass, Jharkhand
1.12/--/GREGola Road (1)  18:14-18:14-  190.5 58340mSERRamgarh bypass, Jharkhand
1.13/--/BRKPBarkipona  18:22-18:22-  197.6 58355mSERChitarpur, Jharkhand
1.14/--/MAELMael  18:25-18:25-  1100.7 58363mSERMael Railway Station, Jharkhand
1.15/--/RMTRamgarh Cantt. (1)O  18:37-18:37-  1112.7 58352mSERRamgarh District, Jharkhand
1.16/--/BRKABarkakana Junction (4)  18:43-18:43-  1118.0 58341mECR0653-255225, Jharkhand
1.17/-=/BHKDBhurkunda (1)  18:53-18:53-  1128.2 58363mECRRamgarh, Jharkhand
1.18/==/PTRUPatratu (3)X  19:02-19:02-  1136.4 58373mECRDistt: Ramgarh, Jharkhand
1.19/==/TKSTokisud  19:09-19:09-  1143.6 58373mECRKhakhra, Jharkhand
1.20/==/HNDRHendegir  19:18-19:18-  1152.2 58397mECRBadam Rd, Jharkhand
1.21/==/KOLEKole  19:27-19:27-  1160.6 58431mECRKeredari - Pachada Rd, Jharkhand
1.22/==/RAYRay (2)  19:30-19:30-  1163.5 58447mECRRanchi, Jharkhand
1.23/==/KLREKhalari (3)  19:40-19:40-  1172.6 58459mECRKhelari, Jharkhand
1.24/==/MGMEMcCluskieGanj (3)  19:46-19:46-  1178.8 58476mECRPipra Toli, Jharkhand
1.25/==/MMLNMahuamilan  19:56-19:56-  1188.0 58486mECRNational Highway 75, Jharkhand
2/==/TORITori (2)  20:10 20:09+2920:11+301 2m21200.878515mECRChandwa, Jharkhand
2.1/==/CTQChetar  20:18-20:18-  1210.4 78479mECRNational Highway 75, Jharkhand
2.2/==/RCGTRichughutu  20:25-20:25-  1218.7 78450mECRNational Highway 75, Jharkhand
2.3/==/DEMUDemu  20:31-20:31-  1227.1 78414mECRNational Highway 75, Jharkhand
3/==/LTHRLatehar (2)  20:37 20:36+4420:38+441 2m--1233.362381mECRLatehar, Jharkhand
3.1/==/BFQBendi  20:44-20:44-  1239.3 62370mECRNational Highway 75, Jharkhand
3.2/==/KMNDKumendiX  20:51-20:51-  1247.0 62353mECRMatnagj, Jharkhand
3.3/==/HHGHehegara Halt  21:00-21:00-  1256.6 62332mECRMatnagj, Jharkhand
3.4/==/CPDRChhipadohar (2)  21:09-21:09-  1265.2 62339mECRChipadohar bypass, Jharkhand
3.5/==/BRWDBarwadih Junction (3)  21:17-21:17-  1273.4 62295mECRDist. Latehar, Jharkhand
3.6/==/MAZMangraX  21:24-21:24-  1281.1 62257mECRMangra, Jharkhand
3.7/==/KCKIKechki  21:29-21:29-  1286.2 62250mECRKechki, Jharkhand
3.8/==/CNFChianki  21:36-21:36-  1293.9 62237mECRNational Highway 75, Jharkhand
4/==/DTODaltonGanj (3)  21:43+4321:45+432m11300.944234mECR230812, Jharkhand
4.1/==/KFTKajri (2)X  21:54-21:54-  1307.3 44216mECRBairia, Jharkhand
4.2/==/RHRRajhura (2)  22:09-22:09-  1318.6 44205mECRDist. Palamu, Jharkhand
4.3/==/LBTLalgarh Bihar Halt (2)X  22:15-22:15-  1323.0 44202mECRLalgarh, Jharkhand
4.4/==/TRZTolra (2)  22:22-22:22-  1328.4 44192mECRPalamu, Jharkhand
5/==/GHDGarhwa Road Junction (3)  22:30+3222:35+325m11334.288188mECRPalamu, Jharkhand
5.1/==/SQSSigsigi (2)  22:39-22:39-  1340.4 88181mECRJharkhand, Jharkhand
5.2/==/KRTAKarkata  22:42-22:42-  1344.8 88174mECRPalamu, Jharkhand
5.3/==/URDUntare Road (2)  22:46-22:46-  1350.5 88170mECRPalamu, Jharkhand
5.4/==/SZFSatbahini  22:50-22:50-  1355.9 88161mECRJharkhand, Jharkhand
5.5/==/MDJMuhammadGanj (2)  22:54-22:54-  1362.4 88160mECRJharkhand, Jharkhand
5.6/==/KVQKosiara  22:59-22:59-  1369.1 88156mECRJharkhand, Jharkhand
5.7/==/HDNHaidar Nagar (2)  23:02-23:02-  1374.3 88145mECRPalamu, Jharkhand
6/==/JPLJapla (2)  23:08 23:07+4523:09+451 2m--1381.379149mECRPalamu, Jharkhand
6.1/==/KYFKajrat Nawadih  23:15-23:15-  1388.9 79143mECRTiwari Vigha Rd, Jharkhand
7/==/NBGNabinagar Road (2)  23:22 23:21+4523:23+451 2m--1397.164140mECRBihar, Bihar
7.1/==/ANHAnkorah Akorha (3)O  23:36-23:36-  1411.3 64121mECRAurangabad, Bihar
7.2/==/BSYABarkisalalya  23:38-23:38-  1413.0 64123mECRTilauthu, Bihar
7.3/==/BCJBagahabishunpur (3)  23:44-23:44-  1419.4 64115mECRBagahabishunpur, Bihar
7.4/==/SEBSon Nagar Junction (4)X  23:52-23:52-  1427.4 64110mECRBarun, Bihar
7.5/==/ADSRADSR  23:56-23:56-  1432.2 64113mECRDehri, Bihar
8/==/DOSDehri On Sone (6)  23:57+1:0123:59+1:012m21433.181114mECRRohtas(06184-253154), Bihar
8.1/==/PHEPahaleja Halt  00:02-00:02-  2437.5 81112mECRPahaleja, Bihar
8.2/==/KWDKarwandia  00:07-00:07-  2444.2 81112mECRKarwandiya, Bihar
9/==/SSMSasaram Junction (4)  00:14 00:12+1:0300:16 00:14+1:032m22450.789111mECR06184-222051, Bihar
9.1/==/KMGEKumahu  00:19-00:19-  2458.6 89101mECRKamahu, Bihar
9.2/==/SSGShiu Sagar RoadO  00:23-00:23-  2464.3 8999mECRShiu Sagar Rd, Bihar
9.3/==/KVDKhurmabad Road  00:26-00:26-  2469.1 8993mECRKhurmabad, Bihar
9.4/==/KTQKudra (2)  00:31-00:31-  2476.0 8992mECRKudra, Bihar
9.5/==/PSEPusauli  00:37-00:37-  2485.0 8986mECRDistt: Rohtas, Bihar
9.6/==/MTGEMuthani  00:42-00:42-  2492.9 8983mECRNational Highway 2, Bihar
10/==/BBUBhabua Road (4)X  00:48 00:46+1:0400:50 00:48+1:042m--2498.35580mECR06187-222222, Bihar
10.1/==/DGODurgauti  00:58-00:58-  2507.3 5578mECRDistt Kaimur, Bihar
10.2/==/DCXDhanaichha (2)  01:04-01:04-  2512.7 5575mECRNational Highway 2, Bihar
10.3/==/KMSKaramnasa (4)  01:10-01:10-  2518.9 5578mECRNational Highway 2, Uttar Pradesh
10.4/==/SYJSaidraja (5)  01:19-01:19-  2527.1 5580mECRSaiyedraja, Uttar Pradesh
10.5/==/CDMRChandauli Majhwar (5)XO  01:28-01:28-  2535.5 5579mECRNational Highway 2, Uttar Pradesh
10.6/==/GAQGanj Khawaja (3)  01:37-01:37-  2544.0 5579mECRGanj Khwaja, Uttar Pradesh
10.7/==/FOCMFlyover Cabin Mughal SaraiX  01:40-01:40-  2546.4 5580mECRChandauli Mjhwr, Uttar Pradesh
11/==/MGSMughal Sarai Junction (8)XO  01:47+4601:57+4710m--2552.98683mECRDistt: Chandauli Pin 232101, Uttar Pradesh
11.1/==/NEWCNew West CabinX  01:58-01:58-  2554.1 8680mECRMughal Sarai, Uttar Pradesh
11.2/==/JEPJeonathpur (2)X  02:02-02:02-  2560.7 8683mNCRVaranasi, Uttar Pradesh
11.3/==/ARWAhraura Road (4)X  02:07-02:07-  2566.7 8685mNCRDist. Mirzapur - 231305, Uttar Pradesh
11.4/==/KYTKailahat (4)  02:12-02:12-  2575.1 8683mNCRKailahat, Uttar Pradesh
11.5/==/CARChunar Junction (5)  02:19-02:19-  2584.8 8685mNCRChunar Junction, Uttar Pradesh
11.6/==/DAPDagmagpurXO  02:24-02:24-  2592.2 8688mNCRDagmagpur, Uttar Pradesh
11.7/==/PREPahara (3)X  02:30-02:30-  2600.2 8687mNCRNational Highway 7, Uttar Pradesh
11.8/==/JHGJhingura  02:35-02:35-  2607.8 8685mNCRNational Highway 7, Uttar Pradesh
11.9/==/MZPMirzapur (3)XO  02:41-02:41-  2616.0 8688mNCRMirzapur, Uttar Pradesh
11.10/==/BDLVindhyachal (3)  02:46-02:46-  2623.4 8688mNCRMirzapur, Uttar Pradesh
11.11/==/BEOBiroheX  02:49-02:49-  2628.1 8683mNCRNational Highway 76, Uttar Pradesh
11.12/==/GAEGaipura (4)  02:54-02:54-  2635.7 8686mNCRGaipura, Uttar Pradesh
11.13/==/JIAJigna (1)  02:59-02:59-  2642.6 8694mNCRNational Highway 76, Uttar Pradesh
11.14/==/MNFManda RoadX  03:05-03:05-  2650.9 8693mNCRNH 76, Uttar Pradesh
11.15/==/UNDUnchdihX  03:11-03:11-  2659.0 8694mNCRUnchdih, Uttar Pradesh
11.16/==/MJAMeja Road (4)  03:16-03:16-  2667.1 8694mNCRDistrict Allahabad, Uttar Pradesh
11.17/==/BEPBheerpur  03:24-03:24-  2678.4 8694mNCRNH 76, Uttar Pradesh
11.18/==/KCNKarchana  03:30-03:30-  2687.5 8694mNCRKarchana, Uttar Pradesh
11.19/==/COIChheoki Junction (3)  03:37-03:37-  2696.5 8696mNCRDist.-Allahabad, Uttar Pradesh
11.20/==/NYNNaini Junction (4)X  03:38-03:38-  2698.1 8698mNCRAllahabad, Uttar Pradesh
12/==/ALDAllahabad Junction (10)XO  03:43+1:2003:45+1:232m12705.697100mNCRAllahabad 211003, Uttar Pradesh
12.1/==/SFGSubedarGanj (3)X  03:47-03:47-  2709.3 97100mNCRAllahabad, Uttar Pradesh
12.2/==/BMUBamhrauli  03:50-03:50-  2714.4 97102mNCRAllahabad, Uttar Pradesh
12.3/==/MREManauri  03:56-03:56-  2722.8 97105mNCRSabderganj-Fatehpur Rd, Uttar Pradesh
12.4/==/SYWNSaiyid SarawanX  03:58-03:58-  2727.4 97106mNCR212203 ?, Uttar Pradesh
12.5/==/MNJManoharGanj  04:03-04:03-  2734.8 97104mNCRNational Highway 2, Uttar Pradesh
12.6/==/BREBharwari  04:08-04:08-  2742.7 97108mNCRBharwari, Uttar Pradesh
12.7/==/BDNPBidanpurX  04:10-04:10-  2746.7 97106mNCRBidanpur, Uttar Pradesh
12.8/==/SJTShujaatpur  04:14-04:14-  2752.9 97107mNCRNational Highway 2, Uttar Pradesh
12.9/==/SROSirathu (2)X  04:20-04:20-  2762.8 97109mNCRSirathu, Uttar Pradesh
12.10/==/ASCEAthsarai  04:24-04:24-  2769.2 97107mNCRAthsarai, Uttar Pradesh
12.11/==/KUWKanwar  04:28-04:28-  2774.7 97110mNCRNational Highway 2, Uttar Pradesh
12.12/==/KTCEKatoghanX  04:31-04:31-  2780.7 97109mNCRNational Highway 2, Uttar Pradesh
12.13/==/KGAKhaga (3)  04:36-04:36-  2787.6 97114mNCRFatehpur, Uttar Pradesh
12.14/==/SNIESath Naraini  04:40-04:40-  2795.1 97114mNCRNational Highway 2, Uttar Pradesh
12.15/==/RUBRasulabadX  04:45-04:45-  2802.2 97118mNCRRasulabad, Uttar Pradesh
12.16/==/FYZFaizullapur  04:50-04:50-  2811.3 97115mNCRFaizullapur, Uttar Pradesh
12.17/==/RAMARamvaX  04:53-04:53-  2816.4 97116mNCRforcing detours between Kanpur and Varanasi, Uttar Pradesh
12.18/==/FTPFatehpur (3)  04:57-04:57-  2822.3 97120mNCRFatehpur, Uttar Pradesh
12.19/==/KKSKurasti KalanX  05:01-05:01-  2829.3 97119mNCRJoniha Rd, Uttar Pradesh
12.20/==/MWHMalwan (2)X  05:07-05:07-  2838.4 97122mNCRFatehpur, Uttar Pradesh
12.21/==/KSQKanspur GugauliX  05:11-05:11-  2845.6 97124mNCRNational Highway 2, Uttar Pradesh
12.22/==/BKOBindki RoadX  05:16-05:16-  2853.6 97124mNCRFatehpur, Uttar Pradesh
12.23/==/AUNGAung  05:20-05:20-  2859.5 97123mNCRNational Highway 2, Uttar Pradesh
12.24/==/KBNKarbigwan  05:24-05:24-  2865.9 97121mNCRFatehpur, Uttar Pradesh
12.25/==/PMPRPrempur  05:27-05:27-  2871.2 97125mNCRNational Highway 2, Uttar Pradesh
12.26/==/SSLSirsaul (1)  05:31-05:31-  2877.3 97125mNCRKANPUR-209 402, Uttar Pradesh
12.27/==/RXMRooma (2)  05:35-05:35-  2884.0 97125mNCRKANPUR-208 008, Uttar Pradesh
12.28/==/CHKChakeri (2)  05:38-05:38-  2888.5 97126mNCRKANPUR-208 008, Uttar Pradesh
12.29/==/CNBIChandari (2)  05:42-05:42-  2895.4 97125mNCRKanpur Cantt, Uttar Pradesh
13/==/CNBKanpur Central (10)X  05:45+1:4105:50+1:445m22899.988128mNCRKANPUR-208 001, Uttar Pradesh
13.1/==/GMCKanpur Goods Marshalling Yard  05:51-05:51-  2901.1 88128mNCRKanpur-208 014, Uttar Pradesh
13.2/==/CNJOJuhi Outer Cabin  05:52-05:52-  2902.8 88131mNCRKanpur, Uttar Pradesh
13.3/==/CPNLKanpur C PanelX  05:52-05:52-  2903.3 88127mNCRKanpur, Uttar Pradesh
13.4/==/GOYGovindpuri Junction (2)  05:53-05:53-  2903.8 88129mNCRKANPUR-208 006, Uttar Pradesh
13.5/==/PNKPanki (3)X  05:58-05:58-  2911.4 88129mNCRKANPUR-208 020, Uttar Pradesh
13.6/==/BPUBhaupurX  06:05-06:05-  2922.6 88133mNCRKANPUR Dehat-209 307, Uttar Pradesh
13.7/==/MTOMaitha  06:12-06:12-  2932.5 88235mNCRKanpur Rural, Uttar Pradesh
13.8/==/RMWRoshan Mau  06:15-06:15-  2936.6 88135mNCRkanpur rural, Uttar Pradesh
13.9/==/RURARura (4)  06:20-06:20-  2944.2 88137mNCRJhinjhak, Uttar Pradesh
13.10/==/AAPAmbiapur  06:26-06:26-  2953.0 88140mNCRJhinjhak, Uttar Pradesh
13.11/==/JJKJhinjhak (3)O  06:33-06:33-  2963.3 88140mNCRAuraiya, Uttar Pradesh
13.12/==/PJYPara Jani Halt (1)  06:37-06:37-  2969.1 88139mNCRPara Jani, Uttar Pradesh
13.13/==/KNSKanchausi (2)  06:41-06:41-  2974.2 88143mNCRState Highway 21, Uttar Pradesh
13.14/==/PHDPhaphund (4)  06:47-06:47-  2983.1 88146mNCRdist. Auraiya, Uttar Pradesh
13.15/==/PATAPata (3)  06:52-06:52-  2991.5 88143mNCRPhaphund, Uttar Pradesh
13.16/==/ULDAchalda (3)  06:58-06:58-  2999.9 88147mNCRDist. Auraiya(05688-1072), Uttar Pradesh
13.17/==/GHSRGhasara Halt (1)  07:02-07:02-  21005.3 88146mNCRPhaphund, Uttar Pradesh
13.18/==/SHWSamhon (2)X  07:04-07:04-  21009.0 88144mNCRSamahon, Uttar Pradesh
13.19/==/BNTBharthana (3)  07:11-07:11-  21019.4 88147mNCRBharthana, Uttar Pradesh
13.20/==/EKLEkdil (2)  07:18-07:18-  21029.6 88150mNCRSarai Ikdil, Uttar Pradesh
13.21/==/ETWEtawah (5)  07:25-07:25-  21039.3 88154mNCRDistt. Etawah, Uttar Pradesh
13.22/==/SBSarai Bhopat (2)  07:31-07:31-  21047.6 88151mNCREtawah(05688-1072), Uttar Pradesh
13.23/==/JGRJaswantnagar (2)  07:36-07:36-  21055.2 88154mNCRJaswantnagar, Uttar Pradesh
13.24/==/BBLBalrai (3)X  07:42-07:42-  21063.9 88157mNCRBalrai, Uttar Pradesh
13.25/==/BDNBhadan (2)X  07:49-07:49-  21074.7 88160mNCRFirozabad, Uttar Pradesh
13.26/==/KAAKaurara (3)X  07:55-07:55-  21083.8 88160mNCRFirozabad Distt, Uttar Pradesh
13.27/==/SKBShikohabad Junction (4)  08:03-08:03-  21094.7 88166mNCRDistrict Firozabad, Uttar Pradesh
13.28/==/MNRMakkhanpur (2)X  08:09-08:09-  21104.6 88166mNCRNational Highway 2, Uttar Pradesh
13.29/==/FZDFirozabad (4)  08:16-08:16-  21114.6 88164mNCRFirozabad, Uttar Pradesh
13.30/==/HNGHirangaon (2)X  08:21-08:21-  21122.3 88166mNCRNational Highway 2, Uttar Pradesh
13.31/==/TDLTundla Junction (5)X  08:27-08:27-  21131.1 88167mNCRDistt.Firozabad, Uttar Pradesh
13.32/==/WSCShivarampur  08:30-08:30-  21134.6 88168mNCRShivarampur, Uttar Pradesh
13.33/==/MTIMitawali (1)  08:32-08:32-  21137.9 88169mNCRMitawali, Uttar Pradesh
13.34/==/BRNBarhan JunctionX  08:37-08:37-  21145.8 88173mNCRJN Point-Tundle/Aligarh/Etah, Uttar Pradesh
13.35/==/CMRChamrola (1)O  08:42-08:42-  21152.6 88174mNCRMDR 106W, Uttar Pradesh
13.36/==/JLSJalesar Road (1)XO  08:46-08:46-  21159.0 88172mNCRMDR 106W, Uttar Pradesh
13.37/==/PORAPora (2)X  08:53-08:53-  21168.7 88179mNCRHathras, Uttar Pradesh
13.38/==/HRSHathras Junction (3)  09:00-09:00-  21179.1 88183mNCRMahamaya Nagar(05722-242803), Uttar Pradesh
13.39/==/SNSSasni (3)X  09:06-09:06-  21188.0 88185mNCRSasni, Uttar Pradesh
13.40/==/MXKMandrak (2)X  09:11-09:11-  21195.4 88190mNCRNational Highway 93, Uttar Pradesh
13.41/==/DAQDaud Khan (3)  09:16-09:16-  21202.2 88189mNCRNational Highway 91, Uttar Pradesh
13.42/==/ALJNAligarh Junction (4)X  09:21-09:21-  21209.2 88192mNCRAligarh, Uttar Pradesh
13.43/==/MWUEMahrawal (2)  09:25-09:25-  21215.6 88189mNCRNational Highway 91, Uttar Pradesh
13.44/==/KLAKulwa (2)  09:29-09:29-  21221.2 88190mNCRAligarh, Uttar Pradesh
13.45/==/SOMSomna (2)O  09:36-09:36-  21231.3 88195mNCRNational Highway 91, Uttar Pradesh
13.46/==/DARDanwar (2)  09:43-09:43-  21241.6 88198mNCRDanwar, Uttar Pradesh
13.47/==/KAMPKamalpur (2)  09:46-09:46-  21247.2 88195mNCRKamalpur, Uttar Pradesh
13.48/==/KRJKhurja Junction (4)  09:50-09:50-  21252.7 88199mNCRBulandshahr, Uttar Pradesh
13.49/==/SKQSikandarpur (2)O  09:54-09:54-  21258.4 88199mNCRMDR 70W, Uttar Pradesh
13.50/==/GNRLGangraul (3)  09:57-09:57-  21263.2 88200mNCRMDR 70W, Uttar Pradesh
13.51/==/CHLChola (3)  10:00-10:00-  21267.3 88204mNCRTahsil Bulandshahar, Uttar Pradesh
13.52/==/WIRWair  10:03-10:03-  21272.1 88203mNCRBhati Harish Singh, Uttar Pradesh
13.53/==/WAIRWair (2)  10:03-10:03-  21272.2 88203mNCRBulandshahr District, Uttar Pradesh
13.54/==/DKDEDankaur (3)  10:10-10:10-  21281.2 88209mNCRShyam Nagar Mandi, Uttar Pradesh
13.55/==/AJRAjaibpur (2)X  10:15-10:15-  21289.5 88207mNCRGreater Noida, Uttar Pradesh
13.56/==/BRKYBoraki (2)  10:18-10:18-  21294.4 88208mNCRNational Highway 91, Uttar Pradesh
13.57/==/DERDadri (3)  10:21-10:21-  21298.6 88210mNCR203207, Uttar Pradesh
13.58/==/MIUMaripat (2)O  10:26-10:26-  21305.4 88213mNCRNational Highway 91, Uttar Pradesh
13.59/==/CYZChipyana Buzurg (1)  10:30-10:30-  21311.8 88209mNRGhaziabad, Uttar Pradesh
13.60/==/GZBGhaziabad Junction (6)XO  10:33-10:33-  21315.4 88217mNRGhaziabad, Uttar Pradesh
13.61/==/SBBSahibabad Junction (5)O  10:38-10:38-  21322.7 88209mNRGhaziabad, Uttar Pradesh
13.62/==/DSBPDelhi Shahdara B Panel  10:39-10:39-  21325.0 88206mNRGhaziabad, Uttar Pradesh
13.63/==/CNJChander Nagar (2)  10:40-10:40-  21326.3 88206mNRSahibabad Industrial Area Site 4, Uttar Pradesh
13.64/==/ANVTDelhi Anand Vihar Terminal (5)  10:42-10:42-  21328.4 88208mNRGhazipur Road, Delhi NCT
13.65/==/ANVRAnand Vihar (2)  10:42-10:42-  21328.5 88213mNRAnand Vihar, Delhi NCT
13.66/==/MWCMandawali-Chander Vihar (2)  10:44-10:44-  21331.9 88206mNRDelhi-110092, Delhi NCT
13.67/==/TKJTilak Bridge (4)  10:48-10:48-  21338.2 88214mNRNew Delhi, Delhi NCT
13.68/==/CSBShivaji Bridge (4)  10:49-10:49-  21339.6 88213mNRConnaught Place, Delhi NCT
14/==/NDLSNew Delhi (16)•  10:50+2:27-1621340.7-215mNRNew Delhi 110002, Delhi NCT
Scroll to Top
Scroll to Bottom